Highmount, Pennsylvania
Current Conditions -  °F | °C
As of 10:30 AM on Wednesday 22 Oct 2014 (Local Time) from KMDT Reporting Station
Light Rain Light Rain  
Wind Chill: 54°   Ceiling: 3100
Heat Index: 54°   Visibility: 10mi
Dew Point: 49°   Wind: 8mph
Humidity: 83%   Direction: 350°N
Pressure: 29.96"   Gusts: NA
Location:  40.0152°N, 76.5974°W
Report Text: KMDT 221430Z 35007KT 10SM -RA FEW022 OVC031 12/09 A2996 RMK AO2 P0000 T01220094
Loading
Personal Weather Stations






























Interactive Weather Map
Tropical Storm Tracking
New forecast layout! Learn more

10-Day Weather Forecast

Advertisements
Track Severe Weather on mobile